sensor_id;sensor_type;location;lat;lon;timestamp;P1;durP1;ratioP1;P2;durP2;ratioP2
40373;SDS011;26079;45.958;12.492;2023-04-03T00:01:30;12.93;;;5.45;;
40373;SDS011;26079;45.958;12.492;2023-04-03T00:03:56;7.10;;;5.97;;
40373;SDS011;26079;45.958;12.492;2023-04-03T00:06:22;6.75;;;5.45;;
40373;SDS011;26079;45.958;12.492;2023-04-03T00:08:48;8.23;;;6.60;;
40373;SDS011;26079;45.958;12.492;2023-04-03T00:11:14;8.20;;;6.38;;
40373;SDS011;26079;45.958;12.492;2023-04-03T00:13:41;9.80;;;5.70;;
40373;SDS011;26079;45.958;12.492;2023-04-03T00:16:07;7.28;;;6.40;;
40373;SDS011;26079;45.958;12.492;2023-04-03T00:18:35;10.70;;;7.07;;
40373;SDS011;26079;45.958;12.492;2023-04-03T00:21:01;7.22;;;6.50;;
40373;SDS011;26079;45.958;12.492;2023-04-03T00:23:27;8.18;;;6.55;;
40373;SDS011;26079;45.958;12.492;2023-04-03T00:25:53;9.18;;;5.63;;
40373;SDS011;26079;45.958;12.492;2023-04-03T00:28:19;6.55;;;5.25;;
40373;SDS011;26079;45.958;12.492;2023-04-03T00:30:45;6.53;;;5.68;;
40373;SDS011;26079;45.958;12.492;2023-04-03T00:33:12;6.50;;;5.88;;
40373;SDS011;26079;45.958;12.492;2023-04-03T00:35:38;7.13;;;6.43;;
40373;SDS011;26079;45.958;12.492;2023-04-03T00:38:03;7.90;;;5.47;;
40373;SDS011;26079;45.958;12.492;2023-04-03T00:40:32;6.70;;;5.97;;
40373;SDS011;26079;45.958;12.492;2023-04-03T00:43:05;10.15;;;7.25;;
40373;SDS011;26079;45.958;12.492;2023-04-03T00:45:41;7.70;;;5.93;;
40373;SDS011;26079;45.958;12.492;2023-04-03T00:48:10;6.95;;;6.07;;
40373;SDS011;26079;45.958;12.492;2023-04-03T00:50:39;6.53;;;5.70;;
40373;SDS011;26079;45.958;12.492;2023-04-03T00:53:08;12.55;;;7.75;;
40373;SDS011;26079;45.958;12.492;2023-04-03T00:55:38;13.95;;;6.15;;
40373;SDS011;26079;45.958;12.492;2023-04-03T00:58:04;12.30;;;7.32;;
40373;SDS011;26079;45.958;12.492;2023-04-03T01:00:32;7.53;;;6.72;;
40373;SDS011;26079;45.958;12.492;2023-04-03T01:02:58;8.73;;;7.60;;
40373;SDS011;26079;45.958;12.492;2023-04-03T01:05:25;9.82;;;6.50;;
40373;SDS011;26079;45.958;12.492;2023-04-03T01:07:51;8.63;;;6.10;;
40373;SDS011;26079;45.958;12.492;2023-04-03T01:10:18;8.95;;;6.57;;
40373;SDS011;26079;45.958;12.492;2023-04-03T01:12:46;7.47;;;6.18;;
40373;SDS011;26079;45.958;12.492;2023-04-03T01:15:17;10.82;;;7.40;;
40373;SDS011;26079;45.958;12.492;2023-04-03T01:17:54;7.30;;;6.38;;
40373;SDS011;26079;45.958;12.492;2023-04-03T01:20:31;9.80;;;6.80;;
40373;SDS011;26079;45.958;12.492;2023-04-03T01:25:46;7.20;;;6.47;;
40373;SDS011;26079;45.958;12.492;2023-04-03T01:28:15;10.43;;;6.38;;
40373;SDS011;26079;45.958;12.492;2023-04-03T01:33:15;7.30;;;6.55;;
40373;SDS011;26079;45.958;12.492;2023-04-03T01:35:41;9.73;;;6.63;;
40373;SDS011;26079;45.958;12.492;2023-04-03T01:38:06;8.02;;;6.18;;
40373;SDS011;26079;45.958;12.492;2023-04-03T01:40:32;7.53;;;6.28;;
40373;SDS011;26079;45.958;12.492;2023-04-03T01:42:58;6.95;;;6.25;;
40373;SDS011;26079;45.958;12.492;2023-04-03T01:45:23;7.50;;;5.82;;
40373;SDS011;26079;45.958;12.492;2023-04-03T01:47:49;8.95;;;6.38;;
40373;SDS011;26079;45.958;12.492;2023-04-03T01:50:15;6.88;;;5.93;;
40373;SDS011;26079;45.958;12.492;2023-04-03T01:52:40;8.70;;;5.90;;
40373;SDS011;26079;45.958;12.492;2023-04-03T01:55:06;6.55;;;5.80;;
40373;SDS011;26079;45.958;12.492;2023-04-03T01:57:32;8.00;;;6.03;;
40373;SDS011;26079;45.958;12.492;2023-04-03T01:59:58;8.30;;;6.28;;
40373;SDS011;26079;45.958;12.492;2023-04-03T02:02:23;7.25;;;6.07;;
40373;SDS011;26079;45.958;12.492;2023-04-03T02:04:49;16.25;;;6.65;;
40373;SDS011;26079;45.958;12.492;2023-04-03T02:07:15;7.45;;;6.70;;
40373;SDS011;26079;45.958;12.492;2023-04-03T02:09:41;7.93;;;6.20;;
40373;SDS011;26079;45.958;12.492;2023-04-03T02:12:06;6.95;;;5.95;;
40373;SDS011;26079;45.958;12.492;2023-04-03T02:14:32;7.20;;;6.30;;
40373;SDS011;26079;45.958;12.492;2023-04-03T02:16:58;7.03;;;6.22;;
40373;SDS011;26079;45.958;12.492;2023-04-03T02:19:26;7.43;;;5.68;;
40373;SDS011;26079;45.958;12.492;2023-04-03T02:21:51;8.43;;;5.35;;
40373;SDS011;26079;45.958;12.492;2023-04-03T02:24:17;7.03;;;6.10;;
40373;SDS011;26079;45.958;12.492;2023-04-03T02:26:43;9.43;;;6.38;;
40373;SDS011;26079;45.958;12.492;2023-04-03T02:29:08;9.68;;;6.22;;
40373;SDS011;26079;45.958;12.492;2023-04-03T02:31:34;6.03;;;5.53;;
40373;SDS011;26079;45.958;12.492;2023-04-03T02:34:00;9.32;;;6.30;;
40373;SDS011;26079;45.958;12.492;2023-04-03T02:36:25;6.60;;;5.90;;
40373;SDS011;26079;45.958;12.492;2023-04-03T02:38:51;9.20;;;5.47;;
40373;SDS011;26079;45.958;12.492;2023-04-03T02:41:17;7.15;;;5.05;;
40373;SDS011;26079;45.958;12.492;2023-04-03T02:43:43;8.38;;;6.47;;
40373;SDS011;26079;45.958;12.492;2023-04-03T02:46:08;6.63;;;5.55;;
40373;SDS011;26079;45.958;12.492;2023-04-03T02:48:34;6.70;;;5.50;;
40373;SDS011;26079;45.958;12.492;2023-04-03T02:51:00;8.52;;;5.40;;
40373;SDS011;26079;45.958;12.492;2023-04-03T02:53:26;6.18;;;5.50;;
40373;SDS011;26079;45.958;12.492;2023-04-03T02:55:51;7.00;;;5.80;;
40373;SDS011;26079;45.958;12.492;2023-04-03T02:58:17;6.13;;;5.53;;
40373;SDS011;26079;45.958;12.492;2023-04-03T03:00:43;6.95;;;6.18;;
40373;SDS011;26079;45.958;12.492;2023-04-03T03:03:08;5.85;;;5.25;;
40373;SDS011;26079;45.958;12.492;2023-04-03T03:05:34;6.82;;;5.55;;
40373;SDS011;26079;45.958;12.492;2023-04-03T03:08:01;9.90;;;5.82;;
40373;SDS011;26079;45.958;12.492;2023-04-03T03:10:26;6.35;;;5.40;;
40373;SDS011;26079;45.958;12.492;2023-04-03T03:12:52;6.97;;;5.45;;
40373;SDS011;26079;45.958;12.492;2023-04-03T03:15:18;5.50;;;5.00;;
40373;SDS011;26079;45.958;12.492;2023-04-03T03:17:44;6.75;;;5.85;;
40373;SDS011;26079;45.958;12.492;2023-04-03T03:20:10;6.10;;;5.25;;
40373;SDS011;26079;45.958;12.492;2023-04-03T03:22:37;6.32;;;5.68;;
40373;SDS011;26079;45.958;12.492;2023-04-03T03:25:03;8.30;;;5.45;;
40373;SDS011;26079;45.958;12.492;2023-04-03T03:27:29;6.70;;;6.00;;
40373;SDS011;26079;45.958;12.492;2023-04-03T03:29:54;6.53;;;5.93;;
40373;SDS011;26079;45.958;12.492;2023-04-03T03:32:20;5.72;;;5.13;;
40373;SDS011;26079;45.958;12.492;2023-04-03T03:34:46;6.15;;;5.15;;
40373;SDS011;26079;45.958;12.492;2023-04-03T03:37:11;6.78;;;5.70;;
40373;SDS011;26079;45.958;12.492;2023-04-03T03:39:37;5.75;;;5.25;;
40373;SDS011;26079;45.958;12.492;2023-04-03T03:42:03;5.40;;;4.47;;
40373;SDS011;26079;45.958;12.492;2023-04-03T03:44:28;9.52;;;5.47;;
40373;SDS011;26079;45.958;12.492;2023-04-03T03:46:54;7.40;;;4.97;;
40373;SDS011;26079;45.958;12.492;2023-04-03T03:49:21;5.90;;;4.95;;
40373;SDS011;26079;45.958;12.492;2023-04-03T03:51:46;5.25;;;4.80;;
40373;SDS011;26079;45.958;12.492;2023-04-03T03:54:12;7.15;;;6.35;;
40373;SDS011;26079;45.958;12.492;2023-04-03T03:56:38;6.70;;;5.20;;
40373;SDS011;26079;45.958;12.492;2023-04-03T03:59:05;10.48;;;5.88;;
40373;SDS011;26079;45.958;12.492;2023-04-03T04:01:31;5.47;;;4.97;;
40373;SDS011;26079;45.958;12.492;2023-04-03T04:03:57;6.10;;;5.13;;
40373;SDS011;26079;45.958;12.492;2023-04-03T04:06:23;4.30;;;3.90;;
40373;SDS011;26079;45.958;12.492;2023-04-03T04:08:49;6.38;;;4.43;;
40373;SDS011;26079;45.958;12.492;2023-04-03T04:11:15;5.45;;;4.88;;
40373;SDS011;26079;45.958;12.492;2023-04-03T04:13:40;4.78;;;4.30;;
40373;SDS011;26079;45.958;12.492;2023-04-03T04:16:06;7.57;;;5.22;;
40373;SDS011;26079;45.958;12.492;2023-04-03T04:18:32;8.85;;;5.28;;
40373;SDS011;26079;45.958;12.492;2023-04-03T04:20:58;6.00;;;4.88;;
40373;SDS011;26079;45.958;12.492;2023-04-03T04:23:24;7.07;;;4.70;;
40373;SDS011;26079;45.958;12.492;2023-04-03T04:25:50;6.30;;;4.50;;
40373;SDS011;26079;45.958;12.492;2023-04-03T04:28:16;13.07;;;8.23;;
40373;SDS011;26079;45.958;12.492;2023-04-03T04:30:42;4.78;;;4.28;;
40373;SDS011;26079;45.958;12.492;2023-04-03T04:33:08;5.43;;;4.93;;
40373;SDS011;26079;45.958;12.492;2023-04-03T04:35:34;8.43;;;5.10;;
40373;SDS011;26079;45.958;12.492;2023-04-03T04:38:00;8.73;;;6.20;;
40373;SDS011;26079;45.958;12.492;2023-04-03T04:40:26;11.27;;;9.35;;
40373;SDS011;26079;45.958;12.492;2023-04-03T04:42:52;18.15;;;14.40;;
40373;SDS011;26079;45.958;12.492;2023-04-03T04:45:17;23.48;;;18.98;;
40373;SDS011;26079;45.958;12.492;2023-04-03T04:47:43;22.60;;;15.63;;
40373;SDS011;26079;45.958;12.492;2023-04-03T04:50:09;16.58;;;12.60;;
40373;SDS011;26079;45.958;12.492;2023-04-03T04:52:36;11.05;;;8.20;;
40373;SDS011;26079;45.958;12.492;2023-04-03T04:55:02;6.22;;;5.63;;
40373;SDS011;26079;45.958;12.492;2023-04-03T04:57:29;7.28;;;6.18;;
40373;SDS011;26079;45.958;12.492;2023-04-03T04:59:54;6.28;;;5.68;;
40373;SDS011;26079;45.958;12.492;2023-04-03T05:02:20;6.18;;;4.97;;
40373;SDS011;26079;45.958;12.492;2023-04-03T05:04:46;5.63;;;4.30;;
40373;SDS011;26079;45.958;12.492;2023-04-03T05:07:11;10.20;;;3.75;;
40373;SDS011;26079;45.958;12.492;2023-04-03T05:09:37;4.70;;;4.30;;
40373;SDS011;26079;45.958;12.492;2023-04-03T05:12:03;5.18;;;3.72;;
40373;SDS011;26079;45.958;12.492;2023-04-03T05:14:29;10.20;;;7.80;;
40373;SDS011;26079;45.958;12.492;2023-04-03T05:16:55;7.25;;;6.45;;
40373;SDS011;26079;45.958;12.492;2023-04-03T05:19:21;10.40;;;7.82;;
40373;SDS011;26079;45.958;12.492;2023-04-03T05:21:47;8.15;;;6.85;;
40373;SDS011;26079;45.958;12.492;2023-04-03T05:24:15;10.43;;;8.35;;
40373;SDS011;26079;45.958;12.492;2023-04-03T05:26:41;14.52;;;11.05;;
40373;SDS011;26079;45.958;12.492;2023-04-03T05:29:07;14.63;;;11.98;;
40373;SDS011;26079;45.958;12.492;2023-04-03T05:31:33;17.65;;;11.43;;
40373;SDS011;26079;45.958;12.492;2023-04-03T05:33:59;20.45;;;10.50;;
40373;SDS011;26079;45.958;12.492;2023-04-03T05:36:25;12.68;;;9.57;;
40373;SDS011;26079;45.958;12.492;2023-04-03T05:38:51;14.43;;;11.38;;
40373;SDS011;26079;45.958;12.492;2023-04-03T05:41:17;11.52;;;7.55;;
40373;SDS011;26079;45.958;12.492;2023-04-03T05:43:43;11.55;;;8.00;;
40373;SDS011;26079;45.958;12.492;2023-04-03T05:46:10;17.98;;;11.20;;
40373;SDS011;26079;45.958;12.492;2023-04-03T05:48:37;14.80;;;10.68;;
40373;SDS011;26079;45.958;12.492;2023-04-03T05:51:03;14.43;;;11.00;;
40373;SDS011;26079;45.958;12.492;2023-04-03T05:53:31;14.82;;;9.25;;
40373;SDS011;26079;45.958;12.492;2023-04-03T05:56:00;19.35;;;10.88;;
40373;SDS011;26079;45.958;12.492;2023-04-03T05:58:25;16.30;;;10.98;;
40373;SDS011;26079;45.958;12.492;2023-04-03T06:00:51;16.58;;;8.93;;
40373;SDS011;26079;45.958;12.492;2023-04-03T06:03:17;12.98;;;8.15;;
40373;SDS011;26079;45.958;12.492;2023-04-03T06:05:43;14.10;;;8.40;;
40373;SDS011;26079;45.958;12.492;2023-04-03T06:08:09;8.05;;;7.25;;
40373;SDS011;26079;45.958;12.492;2023-04-03T06:10:35;14.45;;;10.27;;
40373;SDS011;26079;45.958;12.492;2023-04-03T06:13:01;13.93;;;10.63;;
40373;SDS011;26079;45.958;12.492;2023-04-03T06:15:27;13.57;;;8.15;;
40373;SDS011;26079;45.958;12.492;2023-04-03T06:17:53;13.43;;;8.10;;
40373;SDS011;26079;45.958;12.492;2023-04-03T06:20:19;11.10;;;6.32;;
40373;SDS011;26079;45.958;12.492;2023-04-03T06:22:45;10.27;;;6.55;;
40373;SDS011;26079;45.958;12.492;2023-04-03T06:25:11;6.78;;;6.07;;
40373;SDS011;26079;45.958;12.492;2023-04-03T06:27:37;8.10;;;5.72;;
40373;SDS011;26079;45.958;12.492;2023-04-03T06:30:03;9.98;;;6.03;;
40373;SDS011;26079;45.958;12.492;2023-04-03T06:32:30;9.30;;;6.88;;
40373;SDS011;26079;45.958;12.492;2023-04-03T06:34:56;10.23;;;5.22;;
40373;SDS011;26079;45.958;12.492;2023-04-03T06:37:23;8.60;;;6.47;;
40373;SDS011;26079;45.958;12.492;2023-04-03T06:39:51;8.25;;;6.20;;
40373;SDS011;26079;45.958;12.492;2023-04-03T06:42:17;3.97;;;2.95;;
40373;SDS011;26079;45.958;12.492;2023-04-03T06:44:43;2.72;;;2.20;;
40373;SDS011;26079;45.958;12.492;2023-04-03T06:47:15;3.10;;;2.33;;
40373;SDS011;26079;45.958;12.492;2023-04-03T06:49:42;2.53;;;2.30;;
40373;SDS011;26079;45.958;12.492;2023-04-03T06:52:08;4.20;;;2.35;;
40373;SDS011;26079;45.958;12.492;2023-04-03T06:54:34;5.22;;;3.50;;
40373;SDS011;26079;45.958;12.492;2023-04-03T06:57:00;2.60;;;2.40;;
40373;SDS011;26079;45.958;12.492;2023-04-03T06:59:26;3.00;;;1.63;;
40373;SDS011;26079;45.958;12.492;2023-04-03T07:01:52;2.53;;;1.20;;
40373;SDS011;26079;45.958;12.492;2023-04-03T07:04:18;2.22;;;1.83;;
40373;SDS011;26079;45.958;12.492;2023-04-03T07:06:45;1.88;;;1.65;;
40373;SDS011;26079;45.958;12.492;2023-04-03T07:09:12;2.88;;;2.05;;
40373;SDS011;26079;45.958;12.492;2023-04-03T07:11:38;1.70;;;1.60;;
40373;SDS011;26079;45.958;12.492;2023-04-03T07:14:05;1.40;;;1.30;;
40373;SDS011;26079;45.958;12.492;2023-04-03T07:16:32;6.32;;;1.52;;
40373;SDS011;26079;45.958;12.492;2023-04-03T07:18:59;1.25;;;1.17;;
40373;SDS011;26079;45.958;12.492;2023-04-03T07:21:25;11.02;;;1.30;;
40373;SDS011;26079;45.958;12.492;2023-04-03T07:23:51;1.35;;;1.25;;
40373;SDS011;26079;45.958;12.492;2023-04-03T07:26:16;9.38;;;1.27;;
40373;SDS011;26079;45.958;12.492;2023-04-03T07:28:42;1.85;;;1.30;;
40373;SDS011;26079;45.958;12.492;2023-04-03T07:31:12;1.38;;;0.95;;
40373;SDS011;26079;45.958;12.492;2023-04-03T07:33:38;1.58;;;1.48;;
40373;SDS011;26079;45.958;12.492;2023-04-03T07:36:06;5.38;;;1.65;;
40373;SDS011;26079;45.958;12.492;2023-04-03T07:38:33;2.15;;;1.48;;
40373;SDS011;26079;45.958;12.492;2023-04-03T07:40:59;2.22;;;1.20;;
40373;SDS011;26079;45.958;12.492;2023-04-03T07:43:25;4.25;;;1.58;;
40373;SDS011;26079;45.958;12.492;2023-04-03T07:45:51;4.40;;;1.40;;
40373;SDS011;26079;45.958;12.492;2023-04-03T07:48:24;5.13;;;1.67;;
40373;SDS011;26079;45.958;12.492;2023-04-03T07:50:51;2.30;;;1.55;;
40373;SDS011;26079;45.958;12.492;2023-04-03T07:53:17;1.75;;;1.35;;
40373;SDS011;26079;45.958;12.492;2023-04-03T07:55:45;2.40;;;2.20;;
40373;SDS011;26079;45.958;12.492;2023-04-03T07:58:13;2.70;;;1.80;;
40373;SDS011;26079;45.958;12.492;2023-04-03T08:00:40;1.83;;;1.63;;
40373;SDS011;26079;45.958;12.492;2023-04-03T08:03:07;3.75;;;2.17;;
40373;SDS011;26079;45.958;12.492;2023-04-03T08:05:39;1.98;;;1.45;;
40373;SDS011;26079;45.958;12.492;2023-04-03T08:08:06;4.03;;;1.83;;
40373;SDS011;26079;45.958;12.492;2023-04-03T08:10:33;3.58;;;1.50;;
40373;SDS011;26079;45.958;12.492;2023-04-03T08:12:59;2.20;;;1.60;;
40373;SDS011;26079;45.958;12.492;2023-04-03T08:15:26;1.55;;;1.45;;
40373;SDS011;26079;45.958;12.492;2023-04-03T08:17:52;2.00;;;1.30;;
40373;SDS011;26079;45.958;12.492;2023-04-03T08:20:18;2.15;;;1.80;;
40373;SDS011;26079;45.958;12.492;2023-04-03T08:22:43;4.63;;;1.90;;
40373;SDS011;26079;45.958;12.492;2023-04-03T08:25:12;4.25;;;1.63;;
40373;SDS011;26079;45.958;12.492;2023-04-03T08:27:38;2.10;;;1.27;;
40373;SDS011;26079;45.958;12.492;2023-04-03T08:30:04;1.88;;;1.30;;
40373;SDS011;26079;45.958;12.492;2023-04-03T08:32:32;1.30;;;1.20;;
40373;SDS011;26079;45.958;12.492;2023-04-03T08:34:59;1.30;;;1.20;;
40373;SDS011;26079;45.958;12.492;2023-04-03T08:37:25;3.70;;;1.58;;
40373;SDS011;26079;45.958;12.492;2023-04-03T08:39:51;1.73;;;1.40;;
40373;SDS011;26079;45.958;12.492;2023-04-03T08:45:10;1.50;;;1.35;;
40373;SDS011;26079;45.958;12.492;2023-04-03T08:47:49;1.65;;;1.55;;
40373;SDS011;26079;45.958;12.492;2023-04-03T08:50:45;1.70;;;1.45;;
40373;SDS011;26079;45.958;12.492;2023-04-03T08:53:14;2.25;;;2.00;;
40373;SDS011;26079;45.958;12.492;2023-04-03T08:55:46;1.52;;;1.42;;
40373;SDS011;26079;45.958;12.492;2023-04-03T08:58:20;1.67;;;1.58;;
40373;SDS011;26079;45.958;12.492;2023-04-03T09:03:28;2.55;;;1.52;;
40373;SDS011;26079;45.958;12.492;2023-04-03T09:06:03;1.83;;;1.60;;
40373;SDS011;26079;45.958;12.492;2023-04-03T09:22:58;2.50;;;1.53;;
40373;SDS011;26079;45.958;12.492;2023-04-03T09:25:33;2.13;;;1.73;;
40373;SDS011;26079;45.958;12.492;2023-04-03T09:28:02;2.40;;;1.15;;
40373;SDS011;26079;45.958;12.492;2023-04-03T09:30:28;5.65;;;1.77;;
40373;SDS011;26079;45.958;12.492;2023-04-03T09:32:55;1.58;;;1.38;;
40373;SDS011;26079;45.958;12.492;2023-04-03T09:40:35;1.25;;;1.15;;
40373;SDS011;26079;45.958;12.492;2023-04-03T09:45:50;1.30;;;1.20;;
40373;SDS011;26079;45.958;12.492;2023-04-03T09:48:21;1.63;;;1.45;;
40373;SDS011;26079;45.958;12.492;2023-04-03T09:53:40;2.00;;;1.58;;
40373;SDS011;26079;45.958;12.492;2023-04-03T09:58:43;3.15;;;2.17;;
40373;SDS011;26079;45.958;12.492;2023-04-03T10:01:23;2.72;;;1.50;;
40373;SDS011;26079;45.958;12.492;2023-04-03T10:09:24;6.07;;;1.33;;
40373;SDS011;26079;45.958;12.492;2023-04-03T10:14:39;5.50;;;1.92;;
40373;SDS011;26079;45.958;12.492;2023-04-03T10:19:56;1.55;;;1.45;;
40373;SDS011;26079;45.958;12.492;2023-04-03T10:25:15;1.60;;;1.50;;
40373;SDS011;26079;45.958;12.492;2023-04-03T10:28:01;2.17;;;1.85;;
40373;SDS011;26079;45.958;12.492;2023-04-03T10:33:25;1.92;;;1.50;;
40373;SDS011;26079;45.958;12.492;2023-04-03T10:36:12;4.25;;;1.45;;
40373;SDS011;26079;45.958;12.492;2023-04-03T10:39:05;1.73;;;1.50;;
40373;SDS011;26079;45.958;12.492;2023-04-03T10:44:15;1.90;;;1.55;;
40373;SDS011;26079;45.958;12.492;2023-04-03T10:46:57;2.10;;;1.98;;
40373;SDS011;26079;45.958;12.492;2023-04-03T10:54:46;2.75;;;2.53;;
40373;SDS011;26079;45.958;12.492;2023-04-03T10:57:26;2.20;;;1.88;;
40373;SDS011;26079;45.958;12.492;2023-04-03T11:00:01;1.88;;;1.63;;
40373;SDS011;26079;45.958;12.492;2023-04-03T11:02:39;2.50;;;2.30;;
40373;SDS011;26079;45.958;12.492;2023-04-03T11:05:34;2.50;;;2.30;;
40373;SDS011;26079;45.958;12.492;2023-04-03T11:10:51;1.70;;;1.60;;
40373;SDS011;26079;45.958;12.492;2023-04-03T11:13:21;3.28;;;1.88;;
40373;SDS011;26079;45.958;12.492;2023-04-03T11:15:52;2.35;;;2.15;;
40373;SDS011;26079;45.958;12.492;2023-04-03T11:18:23;5.93;;;2.40;;
40373;SDS011;26079;45.958;12.492;2023-04-03T11:21:12;2.22;;;2.03;;
40373;SDS011;26079;45.958;12.492;2023-04-03T11:23:46;3.10;;;2.40;;
40373;SDS011;26079;45.958;12.492;2023-04-03T11:26:13;2.08;;;1.88;;
40373;SDS011;26079;45.958;12.492;2023-04-03T11:28:45;2.40;;;2.05;;
40373;SDS011;26079;45.958;12.492;2023-04-03T11:34:04;2.80;;;2.08;;
40373;SDS011;26079;45.958;12.492;2023-04-03T11:36:56;2.15;;;1.95;;
40373;SDS011;26079;45.958;12.492;2023-04-03T11:39:30;5.82;;;1.92;;
40373;SDS011;26079;45.958;12.492;2023-04-03T11:44:46;2.30;;;2.10;;
40373;SDS011;26079;45.958;12.492;2023-04-03T11:47:12;1.63;;;1.52;;
40373;SDS011;26079;45.958;12.492;2023-04-03T11:50:30;3.10;;;2.10;;
40373;SDS011;26079;45.958;12.492;2023-04-03T12:05:50;1.92;;;1.63;;
40373;SDS011;26079;45.958;12.492;2023-04-03T12:13:42;2.13;;;2.00;;
40373;SDS011;26079;45.958;12.492;2023-04-03T12:40:37;2.30;;;1.58;;
40373;SDS011;26079;45.958;12.492;2023-04-03T12:43:23;1.55;;;1.35;;
40373;SDS011;26079;45.958;12.492;2023-04-03T12:48:34;2.08;;;1.77;;
40373;SDS011;26079;45.958;12.492;2023-04-03T12:51:09;2.15;;;1.80;;
40373;SDS011;26079;45.958;12.492;2023-04-03T12:53:46;2.95;;;1.70;;
40373;SDS011;26079;45.958;12.492;2023-04-03T12:56:28;1.92;;;1.83;;
40373;SDS011;26079;45.958;12.492;2023-04-03T12:58:56;1.42;;;1.33;;
40373;SDS011;26079;45.958;12.492;2023-04-03T13:01:57;1.38;;;1.27;;
40373;SDS011;26079;45.958;12.492;2023-04-03T13:04:24;3.30;;;1.50;;
40373;SDS011;26079;45.958;12.492;2023-04-03T13:06:52;1.50;;;1.40;;
40373;SDS011;26079;45.958;12.492;2023-04-03T13:09:28;1.58;;;1.48;;
40373;SDS011;26079;45.958;12.492;2023-04-03T13:12:00;2.28;;;1.70;;
40373;SDS011;26079;45.958;12.492;2023-04-03T13:14:28;2.58;;;1.58;;
40373;SDS011;26079;45.958;12.492;2023-04-03T13:17:09;1.65;;;1.33;;
40373;SDS011;26079;45.958;12.492;2023-04-03T13:22:08;2.30;;;1.73;;
40373;SDS011;26079;45.958;12.492;2023-04-03T13:24:51;2.83;;;1.23;;
40373;SDS011;26079;45.958;12.492;2023-04-03T13:27:18;1.75;;;1.00;;
40373;SDS011;26079;45.958;12.492;2023-04-03T13:29:48;1.20;;;1.10;;
40373;SDS011;26079;45.958;12.492;2023-04-03T13:32:18;4.20;;;1.83;;
40373;SDS011;26079;45.958;12.492;2023-04-03T13:34:46;1.85;;;1.42;;
40373;SDS011;26079;45.958;12.492;2023-04-03T13:42:59;1.08;;;0.98;;
40373;SDS011;26079;45.958;12.492;2023-04-03T13:45:54;1.90;;;1.20;;
40373;SDS011;26079;45.958;12.492;2023-04-03T13:48:26;0.88;;;0.82;;
40373;SDS011;26079;45.958;12.492;2023-04-03T13:56:24;4.28;;;1.15;;
40373;SDS011;26079;45.958;12.492;2023-04-03T13:58:59;1.52;;;1.08;;
40373;SDS011;26079;45.958;12.492;2023-04-03T14:01:25;1.25;;;0.80;;
40373;SDS011;26079;45.958;12.492;2023-04-03T14:04:10;1.00;;;0.90;;
40373;SDS011;26079;45.958;12.492;2023-04-03T14:06:44;1.77;;;1.10;;
40373;SDS011;26079;45.958;12.492;2023-04-03T14:09:10;1.73;;;1.00;;
40373;SDS011;26079;45.958;12.492;2023-04-03T14:11:36;1.10;;;0.70;;
40373;SDS011;26079;45.958;12.492;2023-04-03T14:14:05;3.97;;;1.00;;
40373;SDS011;26079;45.958;12.492;2023-04-03T14:16:39;1.27;;;1.05;;
40373;SDS011;26079;45.958;12.492;2023-04-03T14:19:06;1.33;;;0.80;;
40373;SDS011;26079;45.958;12.492;2023-04-03T14:21:32;0.80;;;0.80;;
40373;SDS011;26079;45.958;12.492;2023-04-03T14:23:58;3.40;;;0.88;;
40373;SDS011;26079;45.958;12.492;2023-04-03T14:26:25;0.70;;;0.70;;
40373;SDS011;26079;45.958;12.492;2023-04-03T14:28:53;7.30;;;1.00;;
40373;SDS011;26079;45.958;12.492;2023-04-03T14:31:19;2.33;;;1.00;;
40373;SDS011;26079;45.958;12.492;2023-04-03T14:33:46;2.25;;;0.90;;
40373;SDS011;26079;45.958;12.492;2023-04-03T14:36:13;2.15;;;1.15;;
40373;SDS011;26079;45.958;12.492;2023-04-03T14:38:41;4.93;;;1.20;;
40373;SDS011;26079;45.958;12.492;2023-04-03T14:41:08;1.55;;;0.77;;
40373;SDS011;26079;45.958;12.492;2023-04-03T14:43:37;1.27;;;0.82;;
40373;SDS011;26079;45.958;12.492;2023-04-03T14:46:24;2.95;;;0.93;;
40373;SDS011;26079;45.958;12.492;2023-04-03T14:48:59;2.90;;;1.00;;
40373;SDS011;26079;45.958;12.492;2023-04-03T14:51:26;1.10;;;0.90;;
40373;SDS011;26079;45.958;12.492;2023-04-03T14:53:52;1.27;;;0.88;;
40373;SDS011;26079;45.958;12.492;2023-04-03T14:56:22;3.65;;;1.20;;
40373;SDS011;26079;45.958;12.492;2023-04-03T14:58:52;1.25;;;0.93;;
40373;SDS011;26079;45.958;12.492;2023-04-03T15:01:21;2.35;;;1.30;;
40373;SDS011;26079;45.958;12.492;2023-04-03T15:03:46;0.73;;;0.73;;
40373;SDS011;26079;45.958;12.492;2023-04-03T15:06:13;1.20;;;1.10;;
40373;SDS011;26079;45.958;12.492;2023-04-03T15:08:39;1.42;;;1.30;;
40373;SDS011;26079;45.958;12.492;2023-04-03T15:11:07;4.18;;;3.30;;
40373;SDS011;26079;45.958;12.492;2023-04-03T15:13:34;2.35;;;1.48;;
40373;SDS011;26079;45.958;12.492;2023-04-03T15:16:04;3.03;;;1.45;;
40373;SDS011;26079;45.958;12.492;2023-04-03T15:18:37;6.78;;;1.15;;
40373;SDS011;26079;45.958;12.492;2023-04-03T15:21:03;1.33;;;0.80;;
40373;SDS011;26079;45.958;12.492;2023-04-03T15:23:30;3.15;;;0.75;;
40373;SDS011;26079;45.958;12.492;2023-04-03T15:25:55;1.35;;;0.73;;
40373;SDS011;26079;45.958;12.492;2023-04-03T15:28:43;4.28;;;0.73;;
40373;SDS011;26079;45.958;12.492;2023-04-03T15:31:09;1.63;;;0.70;;
40373;SDS011;26079;45.958;12.492;2023-04-03T15:33:35;7.38;;;0.95;;
40373;SDS011;26079;45.958;12.492;2023-04-03T15:36:01;3.50;;;0.68;;
40373;SDS011;26079;45.958;12.492;2023-04-03T15:38:28;0.68;;;0.57;;
40373;SDS011;26079;45.958;12.492;2023-04-03T15:40:54;5.90;;;1.00;;
40373;SDS011;26079;45.958;12.492;2023-04-03T15:43:23;2.97;;;1.05;;
40373;SDS011;26079;45.958;12.492;2023-04-03T15:45:49;1.95;;;0.60;;
40373;SDS011;26079;45.958;12.492;2023-04-03T15:48:15;1.50;;;0.80;;
40373;SDS011;26079;45.958;12.492;2023-04-03T15:50:42;5.70;;;0.98;;
40373;SDS011;26079;45.958;12.492;2023-04-03T15:53:17;2.05;;;0.88;;
40373;SDS011;26079;45.958;12.492;2023-04-03T15:55:43;4.13;;;0.90;;
40373;SDS011;26079;45.958;12.492;2023-04-03T15:58:08;2.90;;;0.82;;
40373;SDS011;26079;45.958;12.492;2023-04-03T16:00:35;1.67;;;0.93;;
40373;SDS011;26079;45.958;12.492;2023-04-03T16:03:07;1.60;;;0.95;;
40373;SDS011;26079;45.958;12.492;2023-04-03T16:05:39;1.65;;;0.98;;
40373;SDS011;26079;45.958;12.492;2023-04-03T16:08:05;1.73;;;0.85;;
40373;SDS011;26079;45.958;12.492;2023-04-03T16:10:35;2.30;;;1.05;;
40373;SDS011;26079;45.958;12.492;2023-04-03T16:13:02;3.47;;;1.10;;
40373;SDS011;26079;45.958;12.492;2023-04-03T16:15:29;3.33;;;1.10;;
40373;SDS011;26079;45.958;12.492;2023-04-03T16:17:56;1.63;;;1.00;;
40373;SDS011;26079;45.958;12.492;2023-04-03T16:20:23;15.90;;;1.48;;
40373;SDS011;26079;45.958;12.492;2023-04-03T16:22:50;1.58;;;0.85;;
40373;SDS011;26079;45.958;12.492;2023-04-03T16:25:24;3.00;;;1.17;;
40373;SDS011;26079;45.958;12.492;2023-04-03T16:27:49;2.50;;;0.98;;
40373;SDS011;26079;45.958;12.492;2023-04-03T16:30:15;16.40;;;1.98;;
40373;SDS011;26079;45.958;12.492;2023-04-03T16:32:41;5.95;;;1.33;;
40373;SDS011;26079;45.958;12.492;2023-04-03T16:35:08;2.17;;;1.20;;
40373;SDS011;26079;45.958;12.492;2023-04-03T16:37:36;3.22;;;2.15;;
40373;SDS011;26079;45.958;12.492;2023-04-03T16:40:02;2.97;;;1.20;;
40373;SDS011;26079;45.958;12.492;2023-04-03T16:42:30;2.80;;;1.10;;
40373;SDS011;26079;45.958;12.492;2023-04-03T16:44:55;2.78;;;1.42;;
40373;SDS011;26079;45.958;12.492;2023-04-03T16:47:21;4.50;;;1.35;;
40373;SDS011;26079;45.958;12.492;2023-04-03T16:49:47;3.67;;;1.20;;
40373;SDS011;26079;45.958;12.492;2023-04-03T16:52:13;6.07;;;1.30;;